createdAt,value
2023-06-18T00:00:36.096Z,99825.98
2023-06-18T00:06:01.660Z,99828.95
2023-06-18T00:11:04.585Z,99827.43
2023-06-18T00:16:07.444Z,99820.80
2023-06-18T00:21:12.172Z,99822.92
2023-06-18T00:26:15.147Z,99815.50
2023-06-18T00:31:19.326Z,99809.66
2023-06-18T00:36:22.187Z,99806.95
2023-06-18T00:41:28.886Z,99812.83
2023-06-18T00:46:32.132Z,99813.64
2023-06-18T00:51:36.239Z,99815.20
2023-06-18T00:56:39.527Z,99813.98
2023-06-18T01:01:42.480Z,99824.62
2023-06-18T01:06:46.875Z,99826.17
2023-06-18T01:11:54.902Z,99829.24
2023-06-18T01:17:00.223Z,99836.48
2023-06-18T01:22:13.035Z,99837.73
2023-06-18T01:27:17.741Z,99841.86
2023-06-18T01:32:21.428Z,99838.52
2023-06-18T01:37:49.708Z,99841.28
2023-06-18T01:43:12.810Z,99848.79
2023-06-18T01:48:19.131Z,99849.30
2023-06-18T01:53:25.566Z,99847.04
2023-06-18T01:58:32.925Z,99848.79
2023-06-18T02:03:36.089Z,99851.64
2023-06-18T02:08:39.045Z,99856.89
2023-06-18T02:13:41.970Z,99860.64
2023-06-18T02:18:44.763Z,99856.98
2023-06-18T02:23:47.596Z,99854.91
2023-06-18T02:28:50.518Z,99857.05
2023-06-18T02:33:53.329Z,99862.98
2023-06-18T02:38:56.685Z,99864.52
2023-06-18T02:43:59.656Z,99872.23
2023-06-18T02:49:03.099Z,99885.37
2023-06-18T02:54:05.882Z,99881.45
2023-06-18T02:59:08.872Z,99870.42
2023-06-18T03:04:12.940Z,99869.12
2023-06-18T03:09:16.081Z,99881.38
2023-06-18T03:14:21.611Z,99892.86
2023-06-18T03:19:24.645Z,99895.85
2023-06-18T03:24:28.312Z,99897.19
2023-06-18T03:29:31.517Z,99889.63
2023-06-18T03:34:34.969Z,99893.09
2023-06-18T03:39:37.737Z,99900.98
2023-06-18T03:44:40.705Z,99912.08
2023-06-18T03:49:43.607Z,99910.94
2023-06-18T03:54:47.099Z,99918.71
2023-06-18T03:59:53.030Z,99926.56
2023-06-18T04:04:56.387Z,99927.84
2023-06-18T04:09:59.161Z,99920.58
2023-06-18T04:15:02.347Z,99922.98
2023-06-18T04:20:06.378Z,99927.67
2023-06-18T04:25:10.138Z,99925.70
2023-06-18T04:30:13.037Z,99927.81
2023-06-18T04:35:15.971Z,99929.36
2023-06-18T04:40:19.693Z,99935.23
2023-06-18T04:45:22.671Z,99942.04
2023-06-18T04:50:25.832Z,99948.17
2023-06-18T04:55:29.683Z,99949.80
2023-06-18T05:00:34.509Z,99947.69
2023-06-18T05:05:37.294Z,99942.89
2023-06-18T05:10:40.133Z,99939.80
2023-06-18T05:15:43.093Z,99939.80
2023-06-18T05:20:46.398Z,99947.46
2023-06-18T05:25:49.261Z,99944.06
2023-06-18T05:30:52.222Z,99946.98
2023-06-18T05:35:55.197Z,99945.02
2023-06-18T05:40:58.022Z,99957.36
2023-06-18T05:46:01.068Z,99964.59
2023-06-18T05:51:04.251Z,99968.13
2023-06-18T05:56:07.122Z,99976.08
2023-06-18T06:01:10.532Z,99983.63
2023-06-18T06:06:13.550Z,99981.95
2023-06-18T06:11:16.372Z,99978.16
2023-06-18T06:16:19.238Z,99982.83
2023-06-18T06:21:22.081Z,99987.55
2023-06-18T06:26:25.060Z,99995.84
2023-06-18T06:31:27.894Z,100003.21
2023-06-18T06:36:30.772Z,100004.00
2023-06-18T06:41:33.634Z,100003.02
2023-06-18T06:46:36.427Z,99999.81
2023-06-18T06:51:39.610Z,99994.75
2023-06-18T06:56:42.410Z,99997.83
2023-06-18T07:01:46.164Z,100007.77
2023-06-18T07:06:49.374Z,100006.77
2023-06-18T07:11:52.356Z,100009.70
2023-06-18T07:16:55.293Z,100013.46
2023-06-18T07:21:58.202Z,100017.61
2023-06-18T07:27:01.172Z,100021.70
2023-06-18T07:32:04.177Z,100020.91
2023-06-18T07:37:07.184Z,100028.09
2023-06-18T07:42:10.067Z,100033.05
2023-06-18T07:47:13.062Z,100030.33
2023-06-18T07:52:15.850Z,100033.34
2023-06-18T07:57:18.913Z,100029.99
2023-06-18T08:02:21.814Z,100027.63
2023-06-18T08:07:24.636Z,100030.36
2023-06-18T08:12:27.422Z,100037.63
2023-06-18T08:17:30.262Z,100036.54
2023-06-18T08:22:33.538Z,100037.84
2023-06-18T08:27:36.600Z,100038.67
2023-06-18T08:32:39.982Z,100036.30
2023-06-18T08:37:43.776Z,100038.41
2023-06-18T08:42:58.532Z,100041.95
2023-06-18T08:48:19.991Z,100037.89
2023-06-18T08:53:39.532Z,100036.59
2023-06-18T08:58:51.824Z,100037.30
2023-06-18T09:03:56.420Z,100037.05
2023-06-18T09:09:02.128Z,100038.22
2023-06-18T09:14:05.190Z,100037.34
2023-06-18T09:19:09.426Z,100034.92
2023-06-18T09:24:21.860Z,100033.58
2023-06-18T09:29:29.810Z,100031.44
2023-06-18T09:34:32.916Z,100028.63
2023-06-18T09:39:41.636Z,100024.44
2023-06-18T09:44:46.534Z,100020.94
2023-06-18T09:49:49.739Z,100017.48
2023-06-18T09:54:52.752Z,100018.79
2023-06-18T10:00:12.716Z,100019.99
2023-06-18T10:05:16.412Z,100017.58
2023-06-18T10:10:19.848Z,100008.48
2023-06-18T10:15:27.230Z,99999.56
2023-06-18T10:20:30.539Z,99994.23
2023-06-18T10:25:34.647Z,99986.36
2023-06-18T10:30:38.032Z,99994.87
2023-06-18T10:35:41.692Z,100005.96
2023-06-18T10:40:44.721Z,100008.11
2023-06-18T10:46:17.936Z,100003.21
2023-06-18T10:51:20.924Z,100013.92
2023-06-18T10:56:23.673Z,100022.89
2023-06-18T11:01:27.642Z,100024.70
2023-06-18T11:06:31.620Z,100019.96
2023-06-18T11:11:34.885Z,100024.16
2023-06-18T11:16:38.453Z,100018.61
2023-06-18T11:21:46.925Z,100015.42
2023-06-18T11:26:50.887Z,100010.96
2023-06-18T11:31:53.670Z,100005.24
2023-06-18T11:36:56.517Z,100009.61
2023-06-18T11:42:21.022Z,100006.16
2023-06-18T11:47:24.014Z,100001.83
2023-06-18T11:52:28.617Z,100002.36
2023-06-18T11:57:32.066Z,100006.03
2023-06-18T12:02:35.083Z,100003.92
2023-06-18T12:07:45.958Z,100004.81
2023-06-18T12:12:57.186Z,100009.48
2023-06-18T12:18:20.292Z,100009.55
2023-06-18T12:23:23.950Z,100007.77
2023-06-18T12:28:26.873Z,100008.66
2023-06-18T12:33:29.776Z,100004.45
2023-06-18T12:38:47.005Z,100000.28
2023-06-18T12:43:50.425Z,99999.79
2023-06-18T12:48:53.923Z,100004.31
2023-06-18T12:53:56.849Z,100014.08
2023-06-18T12:59:02.913Z,100023.45
2023-06-18T13:04:05.935Z,100034.67
2023-06-18T13:09:09.415Z,100033.11
2023-06-18T13:14:25.954Z,100032.73
2023-06-18T13:19:40.487Z,100030.30
2023-06-18T13:24:46.553Z,100023.08
2023-06-18T13:29:49.483Z,100024.91
2023-06-18T13:34:52.901Z,100026.45
2023-06-18T13:39:55.980Z,100032.08
2023-06-18T13:45:00.639Z,100028.08
2023-06-18T13:50:04.838Z,100029.42
2023-06-18T13:55:08.723Z,100025.20
2023-06-18T14:00:12.754Z,100017.91
2023-06-18T14:05:15.999Z,100020.55
2023-06-18T14:10:19.162Z,100017.47
2023-06-18T14:15:22.156Z,100020.06
2023-06-18T14:20:25.564Z,100018.87
2023-06-18T14:25:29.044Z,100015.80
2023-06-18T14:30:32.605Z,100018.02
2023-06-18T14:35:35.388Z,100014.58
2023-06-18T14:40:38.392Z,100011.93
2023-06-18T14:45:41.287Z,100008.33
2023-06-18T14:50:45.541Z,100009.84
2023-06-18T14:55:48.436Z,100007.84
2023-06-18T15:00:51.391Z,100002.25
2023-06-18T15:05:54.556Z,100009.53
2023-06-18T15:10:57.385Z,100003.88
2023-06-18T15:16:00.260Z,100004.58
2023-06-18T15:21:03.063Z,100006.30
2023-06-18T15:26:06.227Z,100011.35
2023-06-18T15:31:12.419Z,100009.08
2023-06-18T15:36:15.894Z,100004.06
2023-06-18T15:41:18.779Z,100002.20
2023-06-18T15:46:21.679Z,100002.00
2023-06-18T15:51:24.689Z,100008.89
2023-06-18T15:56:27.515Z,100010.73
2023-06-18T16:01:31.920Z,100008.63
2023-06-18T16:06:34.681Z,100007.58
2023-06-18T16:11:37.597Z,100016.46
2023-06-18T16:16:40.542Z,100021.42
2023-06-18T16:21:43.579Z,100019.80
2023-06-18T16:26:46.475Z,100019.69
2023-06-18T16:31:49.382Z,100017.05
2023-06-18T16:36:53.086Z,100013.95
2023-06-18T16:41:56.119Z,100014.88
2023-06-18T16:46:58.949Z,100016.44
2023-06-18T16:52:01.961Z,100019.42
2023-06-18T16:57:05.419Z,100022.90
2023-06-18T17:02:08.236Z,100024.11
2023-06-18T17:07:11.226Z,100021.66
2023-06-18T17:12:14.541Z,100028.13
2023-06-18T17:17:17.456Z,100027.94
2023-06-18T17:22:20.453Z,100025.54
2023-06-18T17:27:24.081Z,100026.98
2023-06-18T17:32:27.001Z,100028.77
2023-06-18T17:37:29.994Z,100027.45
2023-06-18T17:42:32.754Z,100031.14
2023-06-18T17:47:36.051Z,100033.45
2023-06-18T17:52:38.908Z,100023.02
2023-06-18T17:57:42.239Z,100013.88
2023-06-18T18:02:45.111Z,100016.98
2023-06-18T18:07:48.779Z,100018.77
2023-06-18T18:12:51.559Z,100026.63
2023-06-18T18:17:54.379Z,100029.05
2023-06-18T18:22:57.181Z,100037.79
2023-06-18T18:27:59.969Z,100036.84
2023-06-18T18:33:02.865Z,100036.27
2023-06-18T18:38:05.860Z,100036.98
2023-06-18T18:43:08.768Z,100046.47
2023-06-18T18:48:12.421Z,100056.72
2023-06-18T18:53:15.330Z,100057.52
2023-06-18T18:58:18.551Z,100060.93
2023-06-18T19:03:21.661Z,100056.71
2023-06-18T19:08:25.157Z,100060.62
2023-06-18T19:13:28.032Z,100060.56
2023-06-18T19:18:33.281Z,100061.84
2023-06-18T19:23:36.662Z,100062.95
2023-06-18T19:28:39.509Z,100062.97
2023-06-18T19:33:42.739Z,100074.13
2023-06-18T19:38:46.012Z,100076.06
2023-06-18T19:43:48.967Z,100081.08
2023-06-18T19:48:52.693Z,100089.45
2023-06-18T19:53:55.674Z,100092.48
2023-06-18T19:58:58.972Z,100095.63
2023-06-18T20:04:02.138Z,100099.41
2023-06-18T20:09:05.345Z,100104.12
2023-06-18T20:14:08.244Z,100104.45
2023-06-18T20:19:11.221Z,100099.88
2023-06-18T20:24:14.163Z,100099.80
2023-06-18T20:29:17.287Z,100100.46
2023-06-18T20:34:20.140Z,100098.43
2023-06-18T20:39:23.605Z,100096.89
2023-06-18T20:44:26.617Z,100095.36
2023-06-18T20:49:30.498Z,100095.30
2023-06-18T20:54:34.372Z,100092.33
2023-06-18T20:59:37.961Z,100094.22
2023-06-18T21:04:40.755Z,100100.79
2023-06-18T21:09:43.881Z,100103.77
2023-06-18T21:14:46.716Z,100100.70
2023-06-18T21:19:49.472Z,100106.83
2023-06-18T21:24:52.285Z,100114.23
2023-06-18T21:29:55.107Z,100119.33
2023-06-18T21:34:57.908Z,100122.41
2023-06-18T21:40:01.573Z,100120.59
2023-06-18T21:45:05.102Z,100121.02
2023-06-18T21:50:09.747Z,100116.80
2023-06-18T21:55:14.004Z,100118.30
2023-06-18T22:00:19.719Z,100119.77
2023-06-18T22:05:22.962Z,100121.55
2023-06-18T22:10:26.109Z,100123.76
2023-06-18T22:15:29.201Z,100114.34
2023-06-18T22:20:32.190Z,100112.70
2023-06-18T22:25:35.106Z,100111.10
2023-06-18T22:30:38.217Z,100110.24
2023-06-18T22:35:41.064Z,100113.51
2023-06-18T22:40:43.881Z,100107.10
2023-06-18T22:45:46.780Z,100112.39
2023-06-18T22:50:49.914Z,100103.89
2023-06-18T22:55:52.713Z,100103.95
2023-06-18T23:00:56.431Z,100103.29
2023-06-18T23:05:59.360Z,100101.09
2023-06-18T23:11:03.190Z,100094.36
2023-06-18T23:16:06.112Z,100090.13
2023-06-18T23:21:09.766Z,100087.55
2023-06-18T23:26:12.633Z,100083.98
2023-06-18T23:31:17.221Z,100080.09
2023-06-18T23:36:20.265Z,100075.34
2023-06-18T23:41:23.169Z,100072.56
2023-06-18T23:46:25.989Z,100069.78
2023-06-18T23:51:28.929Z,100068.73
2023-06-18T23:56:31.676Z,100068.00
